createdAt,value
2018-06-03T00:00:25.664Z,16.70
2018-06-03T00:02:59.239Z,16.70
2018-06-03T00:05:33.581Z,16.70
2018-06-03T00:08:07.173Z,16.70
2018-06-03T00:10:41.233Z,16.70
2018-06-03T00:13:16.337Z,16.60
2018-06-03T00:15:50.094Z,16.60
2018-06-03T00:18:23.641Z,16.60
2018-06-03T00:21:21.721Z,16.60
2018-06-03T00:23:55.715Z,16.50
2018-06-03T00:26:31.385Z,16.50
2018-06-03T00:29:06.005Z,16.60
2018-06-03T00:31:41.327Z,16.60
2018-06-03T00:34:15.052Z,16.60
2018-06-03T00:36:48.572Z,16.70
2018-06-03T00:39:22.074Z,16.80
2018-06-03T00:41:55.776Z,16.80
2018-06-03T00:44:29.277Z,16.90
2018-06-03T00:47:02.877Z,16.90
2018-06-03T00:49:36.411Z,17.00
2018-06-03T00:52:10.786Z,17.10
2018-06-03T00:54:44.292Z,17.10
2018-06-03T00:57:17.888Z,17.10
2018-06-03T00:59:51.463Z,17.10
2018-06-03T01:02:25.585Z,17.20
2018-06-03T01:04:59.174Z,17.10
2018-06-03T01:07:32.774Z,17.20
2018-06-03T01:10:07.083Z,17.20
2018-06-03T01:12:42.496Z,17.20
2018-06-03T01:15:16.041Z,17.20
2018-06-03T01:17:49.671Z,17.20
2018-06-03T01:20:23.976Z,17.10
2018-06-03T01:22:57.608Z,17.10
2018-06-03T01:25:32.204Z,17.20
2018-06-03T01:28:05.897Z,17.20
2018-06-03T01:30:39.532Z,17.20
2018-06-03T01:33:13.082Z,17.30
2018-06-03T01:35:46.701Z,17.20
2018-06-03T01:38:20.360Z,17.30
2018-06-03T01:40:55.081Z,17.30
2018-06-03T01:43:29.138Z,17.30
2018-06-03T01:46:03.418Z,17.30
2018-06-03T01:48:37.163Z,17.30
2018-06-03T01:51:10.831Z,17.30
2018-06-03T01:53:44.613Z,17.40
2018-06-03T01:56:19.816Z,17.40
2018-06-03T01:58:53.580Z,17.40
2018-06-03T02:01:27.275Z,17.40
2018-06-03T02:04:00.803Z,17.40
2018-06-03T02:06:34.769Z,17.40
2018-06-03T02:09:08.472Z,17.40
2018-06-03T02:11:42.230Z,17.40
2018-06-03T02:14:17.717Z,17.40
2018-06-03T02:16:51.486Z,17.30
2018-06-03T02:19:25.609Z,17.30
2018-06-03T02:22:00.026Z,17.20
2018-06-03T02:24:33.741Z,17.10
2018-06-03T02:27:07.367Z,17.10
2018-06-03T02:29:40.878Z,17.00
2018-06-03T02:32:15.017Z,17.00
2018-06-03T02:34:49.574Z,16.90
2018-06-03T02:37:23.230Z,16.90
2018-06-03T02:39:57.594Z,17.00
2018-06-03T02:42:32.872Z,17.10
2018-06-03T02:45:07.089Z,17.10
2018-06-03T02:47:41.815Z,17.20
2018-06-03T02:50:15.924Z,17.30
2018-06-03T02:52:49.527Z,17.30
2018-06-03T02:55:23.923Z,17.40
2018-06-03T02:57:57.421Z,17.40
2018-06-03T03:00:31.951Z,17.40
2018-06-03T03:03:08.336Z,17.50
2018-06-03T03:05:41.980Z,17.50
2018-06-03T03:08:18.951Z,17.50
2018-06-03T03:10:52.815Z,17.50
2018-06-03T03:13:27.220Z,17.50
2018-06-03T03:16:02.923Z,17.50
2018-06-03T03:18:37.465Z,17.50
2018-06-03T03:21:12.082Z,17.50
2018-06-03T03:23:47.148Z,17.50
2018-06-03T03:26:20.657Z,17.40
2018-06-03T03:28:55.069Z,17.40
2018-06-03T03:31:28.708Z,17.40
2018-06-03T03:34:04.213Z,17.40
2018-06-03T03:36:38.641Z,17.50
2018-06-03T03:39:12.277Z,17.50
2018-06-03T03:41:46.517Z,17.50
2018-06-03T03:44:20.024Z,17.50
2018-06-03T03:46:53.537Z,17.50
2018-06-03T03:49:28.462Z,17.60
2018-06-03T03:52:01.944Z,17.60
2018-06-03T03:54:35.457Z,17.70
2018-06-03T03:57:08.993Z,17.80
2018-06-03T03:59:43.639Z,17.80
2018-06-03T04:02:19.151Z,17.80
2018-06-03T04:04:52.727Z,17.80
2018-06-03T04:07:26.264Z,17.80
2018-06-03T04:10:00.293Z,17.70
2018-06-03T04:12:33.870Z,17.60
2018-06-03T04:15:08.113Z,17.50
2018-06-03T04:17:43.100Z,17.40
2018-06-03T04:20:16.697Z,17.40
2018-06-03T04:22:50.290Z,17.40
2018-06-03T04:25:24.076Z,17.40
2018-06-03T04:27:57.797Z,17.40
2018-06-03T04:30:31.549Z,17.40
2018-06-03T04:33:05.260Z,17.50
2018-06-03T04:35:39.985Z,17.50
2018-06-03T04:38:14.272Z,17.60
2018-06-03T04:40:49.689Z,17.70
2018-06-03T04:43:23.304Z,17.70
2018-06-03T04:45:57.790Z,17.70
2018-06-03T04:48:32.089Z,17.70
2018-06-03T04:51:06.505Z,17.80
2018-06-03T04:53:40.311Z,17.80
2018-06-03T04:56:15.525Z,17.80
2018-06-03T04:58:49.180Z,17.90
2018-06-03T05:01:26.188Z,17.90
2018-06-03T05:04:00.977Z,18.00
2018-06-03T05:06:34.557Z,18.00
2018-06-03T05:09:08.732Z,18.00
2018-06-03T05:11:42.535Z,18.10
2018-06-03T05:14:18.228Z,18.10
2018-06-03T05:16:51.985Z,18.20
2018-06-03T05:19:25.522Z,18.30
2018-06-03T05:21:59.460Z,18.30
2018-06-03T05:24:33.658Z,18.30
2018-06-03T05:27:09.209Z,18.20
2018-06-03T05:29:42.753Z,18.30
2018-06-03T05:32:16.350Z,18.30
2018-06-03T05:34:50.372Z,18.40
2018-06-03T05:37:24.180Z,18.50
2018-06-03T05:39:57.776Z,18.60
2018-06-03T05:42:31.720Z,18.60
2018-06-03T05:45:06.417Z,18.70
2018-06-03T05:47:42.420Z,18.60
2018-06-03T05:50:17.198Z,18.60
2018-06-03T05:52:51.831Z,18.70
2018-06-03T05:55:27.220Z,18.80
2018-06-03T05:58:00.932Z,18.80
2018-06-03T06:00:36.299Z,18.90
2018-06-03T06:03:12.070Z,19.00
2018-06-03T06:05:46.439Z,19.20
2018-06-03T06:08:20.871Z,19.10
2018-06-03T06:10:54.774Z,19.20
2018-06-03T06:13:29.235Z,19.30
2018-06-03T06:16:44.625Z,19.30
2018-06-03T06:19:19.591Z,19.20
2018-06-03T06:21:54.331Z,19.20
2018-06-03T06:24:29.108Z,19.20
2018-06-03T06:27:06.341Z,19.30
2018-06-03T06:29:41.410Z,19.40
2018-06-03T06:32:16.245Z,19.40
2018-06-03T06:34:51.653Z,19.60
2018-06-03T06:37:27.624Z,19.70
2018-06-03T06:40:02.796Z,19.90
2018-06-03T06:42:37.149Z,19.90
2018-06-03T06:45:11.706Z,19.90
2018-06-03T06:47:46.988Z,19.90
2018-06-03T06:50:22.054Z,19.90
2018-06-03T06:52:57.057Z,19.90
2018-06-03T06:55:35.037Z,20.00
2018-06-03T06:58:09.170Z,20.30
2018-06-03T07:00:43.349Z,20.40
2018-06-03T07:03:20.799Z,20.30
2018-06-03T07:05:55.465Z,20.50
2018-06-03T07:08:34.434Z,20.60
2018-06-03T07:11:08.656Z,20.90
2018-06-03T07:13:43.647Z,21.10
2018-06-03T07:16:19.556Z,21.50
2018-06-03T07:18:55.845Z,21.80
2018-06-03T07:24:04.816Z,21.80
2018-06-03T07:26:41.321Z,21.20
2018-06-03T07:29:16.129Z,20.90
2018-06-03T07:31:56.981Z,20.80
2018-06-03T07:34:37.493Z,20.90
2018-06-03T07:37:12.157Z,21.10
2018-06-03T07:39:49.207Z,21.50
2018-06-03T07:42:25.634Z,21.80
2018-06-03T07:45:04.887Z,21.90
2018-06-03T07:47:46.607Z,22.00
2018-06-03T07:50:21.013Z,22.20
2018-06-03T07:52:55.447Z,22.20
2018-06-03T07:55:30.836Z,22.10
2018-06-03T07:58:05.292Z,21.90
2018-06-03T08:00:39.884Z,22.20
2018-06-03T08:03:14.329Z,22.20
2018-06-03T08:05:49.364Z,21.80
2018-06-03T08:08:24.609Z,21.70
2018-06-03T08:13:34.832Z,21.80
2018-06-03T08:16:10.009Z,21.70
2018-06-03T08:18:44.345Z,21.90
2018-06-03T08:21:18.646Z,22.20
2018-06-03T08:23:54.607Z,22.70
2018-06-03T08:26:36.463Z,23.20
2018-06-03T08:29:12.441Z,23.50
2018-06-03T08:31:48.252Z,23.10
2018-06-03T08:34:23.745Z,23.10
2018-06-03T08:37:08.333Z,22.90
2018-06-03T08:39:43.263Z,22.80
2018-06-03T08:42:17.888Z,23.00
2018-06-03T08:44:52.232Z,23.30
2018-06-03T08:47:28.304Z,23.50
2018-06-03T08:50:02.986Z,23.40
2018-06-03T08:52:40.777Z,23.30
2018-06-03T08:55:21.709Z,23.10
2018-06-03T08:57:59.959Z,22.90
2018-06-03T09:00:43.028Z,22.90
2018-06-03T09:03:20.466Z,22.50
2018-06-03T09:06:01.001Z,22.40
2018-06-03T09:08:36.426Z,22.60
2018-06-03T09:11:11.260Z,22.50
2018-06-03T09:16:22.225Z,23.20
2018-06-03T09:18:57.003Z,23.40
2018-06-03T09:21:33.177Z,23.10
2018-06-03T09:24:08.300Z,23.10
2018-06-03T09:26:44.992Z,23.20
2018-06-03T09:29:20.943Z,23.60
2018-06-03T09:31:55.857Z,23.60
2018-06-03T09:34:30.814Z,23.90
2018-06-03T09:37:05.784Z,24.30
2018-06-03T09:39:40.962Z,24.80
2018-06-03T09:42:15.283Z,25.00
2018-06-03T09:44:57.137Z,25.10
2018-06-03T09:47:33.470Z,25.10
2018-06-03T09:50:09.046Z,25.00
2018-06-03T09:52:43.490Z,25.10
2018-06-03T09:55:18.149Z,25.40
2018-06-03T09:57:52.727Z,25.20
2018-06-03T10:00:28.007Z,25.50
2018-06-03T10:03:02.911Z,25.30
2018-06-03T10:05:37.258Z,25.20
2018-06-03T10:08:11.489Z,25.10
2018-06-03T10:10:46.233Z,24.80
2018-06-03T10:13:20.454Z,24.80
2018-06-03T10:15:55.825Z,25.00
2018-06-03T10:18:30.108Z,25.30
2018-06-03T10:21:04.491Z,25.40
2018-06-03T10:23:39.577Z,25.70
2018-06-03T10:26:14.253Z,25.80
2018-06-03T10:28:48.546Z,26.00
2018-06-03T10:31:28.166Z,26.40
2018-06-03T10:34:02.375Z,26.40
2018-06-03T10:36:36.836Z,26.20
2018-06-03T10:39:17.607Z,25.80
2018-06-03T10:41:51.949Z,25.90
2018-06-03T10:44:26.343Z,26.00
2018-06-03T10:47:01.302Z,25.80
2018-06-03T10:49:35.596Z,25.90
2018-06-03T10:52:09.901Z,25.80
2018-06-03T10:54:44.234Z,25.90
2018-06-03T10:57:18.645Z,25.90
2018-06-03T10:59:53.508Z,25.40
2018-06-03T11:02:28.891Z,25.90
2018-06-03T11:05:03.596Z,26.50
2018-06-03T11:07:37.973Z,27.10
2018-06-03T11:10:12.154Z,26.60
2018-06-03T11:12:47.373Z,26.50
2018-06-03T11:15:22.772Z,26.80
2018-06-03T11:17:57.885Z,26.90
2018-06-03T11:20:35.215Z,26.50
2018-06-03T11:23:14.540Z,26.70
2018-06-03T11:25:50.981Z,26.80
2018-06-03T11:28:26.755Z,26.40
2018-06-03T11:31:10.530Z,26.40
2018-06-03T11:33:52.554Z,26.90
2018-06-03T11:36:30.996Z,27.40
2018-06-03T11:39:07.636Z,27.80
2018-06-03T11:41:43.834Z,27.90
2018-06-03T11:44:19.850Z,27.90
2018-06-03T11:46:54.941Z,27.70
2018-06-03T11:49:34.909Z,27.80
2018-06-03T11:52:10.199Z,28.30
2018-06-03T11:54:45.759Z,28.60
2018-06-03T11:59:55.640Z,28.20
2018-06-03T12:02:29.843Z,27.60
2018-06-03T12:05:04.045Z,27.40
2018-06-03T12:07:38.981Z,27.20
2018-06-03T12:10:13.917Z,26.70
2018-06-03T12:12:48.087Z,26.50
2018-06-03T12:15:23.515Z,26.20
2018-06-03T12:17:57.901Z,26.00
2018-06-03T12:20:33.313Z,26.00
2018-06-03T12:23:07.468Z,25.90
2018-06-03T12:25:42.857Z,25.40
2018-06-03T12:28:17.559Z,25.20
2018-06-03T12:30:51.769Z,25.30
2018-06-03T12:33:26.980Z,25.30
2018-06-03T12:36:01.357Z,25.40
2018-06-03T12:38:36.275Z,25.30
2018-06-03T12:41:12.069Z,25.80
2018-06-03T12:46:23.273Z,25.60
2018-06-03T12:48:57.636Z,25.60
2018-06-03T12:51:31.870Z,25.30
2018-06-03T12:54:06.491Z,25.30
2018-06-03T12:56:40.848Z,25.00
2018-06-03T12:59:15.790Z,24.90
2018-06-03T13:01:50.710Z,24.60
2018-06-03T13:04:25.412Z,24.50
2018-06-03T13:07:00.020Z,24.30
2018-06-03T13:09:34.485Z,24.30
2018-06-03T13:12:10.994Z,24.40
2018-06-03T13:14:48.225Z,24.30
2018-06-03T13:17:22.864Z,24.30
2018-06-03T13:19:57.089Z,24.40
2018-06-03T13:25:05.273Z,24.20
2018-06-03T13:27:39.842Z,24.20
2018-06-03T13:30:14.215Z,24.20
2018-06-03T13:32:49.304Z,24.30
2018-06-03T13:35:25.059Z,24.60
2018-06-03T13:38:00.175Z,24.80
2018-06-03T13:40:35.476Z,24.90
2018-06-03T13:43:10.421Z,25.10
2018-06-03T13:45:45.961Z,25.40
2018-06-03T13:48:21.246Z,25.40
2018-06-03T13:53:32.361Z,25.50
2018-06-03T13:56:06.532Z,25.60
2018-06-03T13:58:42.120Z,26.10
2018-06-03T14:01:16.373Z,25.80
2018-06-03T14:03:51.341Z,25.60
2018-06-03T14:06:26.248Z,26.00
2018-06-03T14:09:02.509Z,26.00
2018-06-03T14:11:36.684Z,25.80
2018-06-03T14:14:14.295Z,25.80
2018-06-03T14:16:50.436Z,25.90
2018-06-03T14:19:26.261Z,26.30
2018-06-03T14:22:00.957Z,26.40
2018-06-03T14:24:36.709Z,26.90
2018-06-03T14:27:11.230Z,26.80
2018-06-03T14:29:45.798Z,26.60
2018-06-03T14:32:20.013Z,26.70
2018-06-03T14:34:54.468Z,26.70
2018-06-03T14:37:29.469Z,26.70
2018-06-03T14:40:04.568Z,26.50
2018-06-03T14:42:40.699Z,26.90
2018-06-03T14:45:15.363Z,27.20
2018-06-03T14:47:50.889Z,27.40
2018-06-03T14:50:25.654Z,28.40
2018-06-03T14:53:01.839Z,30.20
2018-06-03T14:55:36.005Z,30.50
2018-06-03T14:58:12.404Z,30.80
2018-06-03T15:00:48.321Z,30.60
2018-06-03T15:03:23.716Z,30.00
2018-06-03T15:05:59.150Z,29.60
2018-06-03T15:08:34.003Z,29.40
2018-06-03T15:11:08.365Z,28.80
2018-06-03T15:13:43.224Z,28.20
2018-06-03T15:16:17.653Z,28.70
2018-06-03T15:18:52.515Z,28.60
2018-06-03T15:21:26.988Z,28.70
2018-06-03T15:24:01.169Z,29.10
2018-06-03T15:26:35.549Z,29.00
2018-06-03T15:29:12.557Z,28.70
2018-06-03T15:31:51.436Z,28.80
2018-06-03T15:34:25.976Z,28.70
2018-06-03T15:37:00.643Z,28.60
2018-06-03T15:39:36.800Z,28.70
2018-06-03T15:42:11.027Z,29.30
2018-06-03T15:44:45.828Z,29.50
2018-06-03T15:47:20.248Z,28.80
2018-06-03T15:49:54.467Z,28.70
2018-06-03T15:52:31.248Z,28.90
2018-06-03T15:55:06.717Z,28.00
2018-06-03T15:57:41.031Z,28.00
2018-06-03T16:00:18.364Z,28.10
2018-06-03T16:02:53.203Z,27.60
2018-06-03T16:05:27.573Z,27.40
2018-06-03T16:08:01.817Z,27.40
2018-06-03T16:10:36.206Z,27.20
2018-06-03T16:13:12.340Z,27.50
2018-06-03T16:15:46.541Z,27.60
2018-06-03T16:18:20.693Z,27.30
2018-06-03T16:20:56.354Z,27.60
2018-06-03T16:23:31.478Z,28.40
2018-06-03T16:26:06.245Z,29.00
2018-06-03T16:28:40.677Z,29.30
2018-06-03T16:31:19.639Z,30.10
2018-06-03T16:33:55.474Z,31.90
2018-06-03T16:36:31.011Z,32.70
2018-06-03T16:39:06.989Z,34.40
2018-06-03T16:41:41.169Z,36.20
2018-06-03T16:44:17.062Z,36.20
2018-06-03T16:46:52.303Z,35.90
2018-06-03T16:49:26.716Z,35.00
2018-06-03T16:52:02.052Z,33.70
2018-06-03T16:54:38.400Z,32.90
2018-06-03T16:57:15.496Z,32.10
2018-06-03T16:59:50.038Z,30.60
2018-06-03T17:02:24.458Z,29.00
2018-06-03T17:04:58.635Z,28.70
2018-06-03T17:07:34.597Z,28.40
2018-06-03T17:10:08.944Z,28.20
2018-06-03T17:12:44.897Z,27.90
2018-06-03T17:15:19.513Z,27.90
2018-06-03T17:17:54.465Z,27.90
2018-06-03T17:20:33.404Z,27.90
2018-06-03T17:23:08.755Z,27.30
2018-06-03T17:25:43.846Z,27.00
2018-06-03T17:28:25.417Z,26.70
2018-06-03T17:31:06.116Z,26.40
2018-06-03T17:33:44.160Z,26.30
2018-06-03T17:36:26.675Z,26.10
2018-06-03T17:39:02.610Z,25.90
2018-06-03T17:41:41.150Z,26.30
2018-06-03T17:44:16.024Z,26.80
2018-06-03T17:46:50.545Z,28.20
2018-06-03T17:49:24.754Z,29.40
2018-06-03T17:52:00.134Z,30.10
2018-06-03T17:54:35.395Z,30.10
2018-06-03T17:57:09.759Z,30.10
2018-06-03T17:59:45.128Z,30.20
2018-06-03T18:02:20.304Z,30.00
2018-06-03T18:04:56.962Z,30.30
2018-06-03T18:07:31.243Z,30.30
2018-06-03T18:10:06.875Z,30.20
2018-06-03T18:12:41.357Z,29.20
2018-06-03T18:15:15.769Z,28.40
2018-06-03T18:17:51.332Z,28.40
2018-06-03T18:20:25.852Z,28.50
2018-06-03T18:23:00.210Z,28.20
2018-06-03T18:25:36.140Z,27.00
2018-06-03T18:28:11.276Z,26.40
2018-06-03T18:30:52.149Z,26.10
2018-06-03T18:33:50.616Z,25.90
2018-06-03T18:36:37.841Z,25.70
2018-06-03T18:39:17.315Z,25.30
2018-06-03T18:41:53.495Z,25.10
2018-06-03T18:44:29.821Z,25.00
2018-06-03T18:47:04.489Z,24.80
2018-06-03T18:49:40.459Z,24.70
2018-06-03T18:52:23.216Z,24.40
2018-06-03T18:54:58.528Z,24.30
2018-06-03T18:57:34.099Z,24.10
2018-06-03T19:00:10.549Z,23.90
2018-06-03T19:02:48.348Z,23.80
2018-06-03T19:05:27.596Z,23.60
2018-06-03T19:08:04.797Z,23.40
2018-06-03T19:10:40.647Z,23.40
2018-06-03T19:13:15.741Z,23.30
2018-06-03T19:15:50.392Z,23.10
2018-06-03T19:18:26.934Z,23.00
2018-06-03T19:23:42.307Z,22.80
2018-06-03T19:26:18.385Z,22.70
2018-06-03T19:28:57.820Z,22.60
2018-06-03T19:31:33.907Z,22.50
2018-06-03T19:34:11.059Z,22.40
2018-06-03T19:36:48.418Z,22.30
2018-06-03T19:39:26.884Z,22.30
2018-06-03T19:42:07.613Z,22.20
2018-06-03T19:44:52.544Z,22.10
2018-06-03T19:47:29.652Z,22.00
2018-06-03T19:50:06.821Z,22.00
2018-06-03T19:52:41.725Z,21.90
2018-06-03T19:55:19.697Z,21.80
2018-06-03T19:58:00.205Z,21.70
2018-06-03T20:00:36.312Z,21.60
2018-06-03T20:03:12.275Z,21.50
2018-06-03T20:11:46.142Z,21.10
2018-06-03T20:14:22.622Z,21.00
2018-06-03T20:16:59.111Z,20.90
2018-06-03T20:19:41.712Z,20.80
2018-06-03T20:22:17.725Z,20.80
2018-06-03T20:24:53.116Z,20.80
2018-06-03T20:27:37.354Z,20.80
2018-06-03T20:33:15.885Z,20.80
2018-06-03T20:35:56.254Z,20.80
2018-06-03T20:38:30.744Z,20.80
2018-06-03T20:41:11.669Z,20.80
2018-06-03T20:43:50.407Z,20.80
2018-06-03T20:49:04.920Z,20.60
2018-06-03T20:51:40.502Z,20.50
2018-06-03T20:54:20.444Z,20.40
2018-06-03T20:57:00.294Z,20.30
2018-06-03T20:59:36.514Z,20.20
2018-06-03T21:02:11.321Z,20.10
2018-06-03T21:04:58.376Z,20.10
2018-06-03T21:07:45.406Z,20.00
2018-06-03T21:10:21.744Z,19.90
2018-06-03T21:16:06.943Z,19.80
2018-06-03T21:18:53.187Z,19.70
2018-06-03T21:21:30.524Z,19.70
2018-06-03T21:24:08.094Z,19.60
2018-06-03T21:26:42.513Z,19.60
2018-06-03T21:29:17.403Z,19.60
2018-06-03T21:31:55.407Z,19.60
2018-06-03T21:34:32.588Z,19.60
2018-06-03T21:37:06.871Z,19.60
2018-06-03T21:39:41.128Z,19.60
2018-06-03T21:44:51.479Z,19.50
2018-06-03T21:47:28.468Z,19.50
2018-06-03T21:50:08.379Z,19.60
2018-06-03T21:52:43.757Z,19.50
2018-06-03T21:55:19.308Z,19.50
2018-06-03T21:57:53.892Z,19.40
2018-06-03T22:00:30.891Z,19.40
2018-06-03T22:03:10.652Z,19.30
2018-06-03T22:05:46.823Z,19.30
2018-06-03T22:08:24.313Z,19.20
2018-06-03T22:10:59.597Z,19.20
2018-06-03T22:13:34.338Z,19.20
2018-06-03T22:16:10.849Z,19.20
2018-06-03T22:18:45.780Z,19.10
2018-06-03T22:21:27.093Z,19.10
2018-06-03T22:24:04.030Z,19.10
2018-06-03T22:26:40.213Z,19.00
2018-06-03T22:29:16.448Z,19.00
2018-06-03T22:31:51.043Z,18.90
2018-06-03T22:34:28.367Z,18.80
2018-06-03T22:37:03.343Z,18.80
2018-06-03T22:39:40.123Z,18.80
2018-06-03T22:42:15.072Z,18.80
2018-06-03T22:44:49.434Z,18.80
2018-06-03T22:47:24.471Z,18.80
2018-06-03T22:49:58.894Z,18.70
2018-06-03T22:52:35.266Z,18.70
2018-06-03T22:55:11.045Z,18.60
2018-06-03T22:57:54.331Z,18.60
2018-06-03T23:00:33.471Z,18.60
2018-06-03T23:03:13.702Z,18.50
2018-06-03T23:05:49.497Z,18.50
2018-06-03T23:11:04.581Z,18.40
2018-06-03T23:13:40.081Z,18.30
2018-06-03T23:16:16.143Z,18.30
2018-06-03T23:18:52.100Z,18.30
2018-06-03T23:21:26.536Z,18.20
2018-06-03T23:24:01.878Z,18.20
2018-06-03T23:26:37.456Z,18.20
2018-06-03T23:29:16.787Z,18.20
2018-06-03T23:31:52.320Z,18.10
2018-06-03T23:34:28.544Z,18.10
2018-06-03T23:37:03.006Z,18.10
2018-06-03T23:39:38.172Z,18.00
2018-06-03T23:42:13.074Z,18.00
2018-06-03T23:44:47.864Z,17.90
2018-06-03T23:47:22.212Z,17.90
2018-06-03T23:49:57.492Z,17.80
2018-06-03T23:52:32.465Z,17.80
2018-06-03T23:57:46.721Z,17.70
